Time;durP1;ratioP1;P1;durP2;ratioP2;P2;SDS_P1;SDS_P2;PMS_P1;PMS_P2;Temp;Humidity;BMP_temperature;BMP_pressure;BME280_temperature;BME280_humidity;BME280_pressure;Samples;Min_cycle;Max_cycle;Signal;HPM_P1;HPM_P2
2021/10/04 00:00:37;;;;;;;2.67;0.70;;;;;;;21.54;51.62;101088.88;4994913;28;20353;-65
2021/10/04 00:03:03;;;;;;;1.55;0.80;;;;;;;21.54;51.83;101096.84;4994162;28;20284;-65
2021/10/04 00:05:31;;;;;;;2.20;0.70;;;;;;;21.52;51.84;101104.94;4994985;28;20371;-65
2021/10/04 00:07:56;;;;;;;2.38;0.88;;;;;;;21.51;51.78;101100.59;4994723;28;20027;-65
2021/10/04 00:10:22;;;;;;;1.33;0.63;;;;;;;21.52;51.65;101106.72;4994224;28;20022;-64
2021/10/04 00:12:47;;;;;;;1.17;0.70;;;;;;;21.52;51.77;101104.06;4994657;28;20287;-65
2021/10/04 00:15:18;;;;;;;2.05;0.80;;;;;;;21.51;51.80;101105.06;4994933;28;20034;-65
2021/10/04 00:17:44;;;;;;;1.98;0.80;;;;;;;21.49;51.60;101107.88;4994289;28;20030;-65
2021/10/04 00:20:12;;;;;;;1.90;0.80;;;;;;;21.49;51.68;101121.13;4994478;28;20097;-65
2021/10/04 00:22:37;;;;;;;1.55;0.70;;;;;;;21.46;51.77;101121.38;4995071;28;20038;-65
2021/10/04 00:25:07;;;;;;;1.58;0.80;;;;;;;21.45;51.77;101132.94;4993630;28;20482;-64
2021/10/04 00:27:35;;;;;;;1.58;0.90;;;;;;;21.44;51.45;101141.84;4994533;28;20037;-64
2021/10/04 00:30:07;;;;;;;1.48;0.75;;;;;;;21.44;51.55;101143.69;4994507;28;20385;-65
2021/10/04 00:32:37;;;;;;;1.88;0.70;;;;;;;21.42;51.70;101138.50;4993919;28;20054;-65
2021/10/04 00:35:04;;;;;;;1.83;0.70;;;;;;;21.40;51.68;101132.53;4994174;28;20053;-65
2021/10/04 00:37:30;;;;;;;1.52;0.70;;;;;;;21.41;51.60;101133.34;4993626;28;20023;-65
2021/10/04 00:39:55;;;;;;;1.92;0.88;;;;;;;21.40;51.57;101131.69;4993923;28;20037;-65
2021/10/04 00:42:21;;;;;;;2.45;0.70;;;;;;;21.38;51.58;101143.28;4994408;28;20458;-65
2021/10/04 00:44:48;;;;;;;1.88;0.70;;;;;;;21.37;51.59;101141.59;4993489;28;20398;-65
2021/10/04 00:47:17;;;;;;;1.80;0.70;;;;;;;21.37;51.76;101152.19;4994365;28;20030;-65
2021/10/04 00:49:43;;;;;;;1.42;0.60;;;;;;;21.36;51.60;101144.38;4994030;28;20494;-65
2021/10/04 00:52:08;;;;;;;1.95;0.70;;;;;;;21.35;51.30;101146.19;4993252;28;20108;-65
2021/10/04 00:54:37;;;;;;;2.10;0.70;;;;;;;21.34;51.65;101141.03;4994008;28;20046;-65
2021/10/04 00:57:03;;;;;;;2.08;0.70;;;;;;;21.33;51.54;101145.50;4993559;28;20176;-64
2021/10/04 00:59:29;;;;;;;1.85;0.80;;;;;;;21.33;51.42;101153.47;4993289;28;20022;-64
2021/10/04 01:01:58;;;;;;;1.52;0.70;;;;;;;21.30;51.66;101153.72;4993738;28;20405;-64
2021/10/04 01:04:26;;;;;;;2.10;0.80;;;;;;;21.32;51.52;101175.63;4993793;28;20399;-64
2021/10/04 01:06:53;;;;;;;1.17;0.50;;;;;;;21.30;51.46;101172.28;4992121;28;20030;-65
2021/10/04 01:09:19;;;;;;;1.65;0.60;;;;;;;21.29;51.47;101162.66;4993775;28;20050;-64
2021/10/04 01:11:45;;;;;;;2.05;0.90;;;;;;;21.28;51.54;101149.53;4993987;28;20029;-64
2021/10/04 01:14:10;;;;;;;2.47;0.77;;;;;;;21.29;51.42;101157.34;4992582;28;20046;-63
2021/10/04 01:16:36;;;;;;;1.67;0.70;;;;;;;21.27;51.47;101148.69;4993692;28;20022;-64
2021/10/04 01:19:01;;;;;;;0.80;0.60;;;;;;;21.24;51.43;101146.31;4993385;28;20459;-65
2021/10/04 01:21:26;;;;;;;1.20;0.60;;;;;;;21.24;51.50;101153.41;4993214;28;20154;-65
2021/10/04 01:23:55;;;;;;;2.38;0.80;;;;;;;21.24;51.35;101156.06;4993224;28;20034;-66
2021/10/04 01:26:24;;;;;;;1.65;0.70;;;;;;;21.23;51.62;101155.25;4993695;28;20019;-65
2021/10/04 01:28:50;;;;;;;1.08;0.60;;;;;;;21.23;51.35;101154.41;4992551;28;20049;-65
2021/10/04 01:31:21;;;;;;;1.55;0.70;;;;;;;21.23;51.33;101163.19;4993568;28;20485;-65
2021/10/04 01:33:46;;;;;;;2.75;0.82;;;;;;;21.22;51.31;101164.19;4992782;28;20031;-65
2021/10/04 01:36:12;;;;;;;1.83;0.70;;;;;;;21.22;51.35;101160.69;4993082;28;20462;-65
2021/10/04 01:38:37;;;;;;;1.52;0.70;;;;;;;21.20;51.37;101164.31;4993565;28;20385;-65
2021/10/04 01:41:02;;;;;;;1.70;0.70;;;;;;;21.19;51.19;101153.84;4992455;28;20484;-65
2021/10/04 01:43:27;;;;;;;1.80;0.70;;;;;;;21.19;51.40;101157.34;4993442;28;20338;-65
2021/10/04 01:45:53;;;;;;;1.87;0.67;;;;;;;21.18;51.37;101158.31;4993070;28;20523;-65
2021/10/04 01:48:18;;;;;;;1.58;0.75;;;;;;;21.17;51.31;101164.59;4992379;28;20667;-65
2021/10/04 01:50:43;;;;;;;1.43;0.60;;;;;;;21.16;51.48;101154.13;4993038;28;20082;-65
2021/10/04 01:53:09;;;;;;;2.08;0.80;;;;;;;21.15;51.26;101155.94;4992746;28;20834;-64
2021/10/04 01:55:35;;;;;;;2.03;0.70;;;;;;;21.17;51.35;101161.09;4992296;28;20034;-65
2021/10/04 01:58:01;;;;;;;1.77;0.70;;;;;;;21.15;51.43;101161.22;4993045;28;20018;-65
2021/10/04 02:00:26;;;;;;;2.47;0.70;;;;;;;21.14;51.38;101154.28;4993291;28;20062;-65
2021/10/04 02:02:53;;;;;;;1.38;0.60;;;;;;;21.13;51.43;101157.06;4992048;28;20037;-64
2021/10/04 02:05:21;;;;;;;1.35;0.70;;;;;;;21.12;51.29;101165.97;4993152;28;20105;-64
2021/10/04 02:07:47;;;;;;;1.23;0.60;;;;;;;21.11;51.24;101159.84;4993286;28;20023;-65
2021/10/04 02:10:17;;;;;;;1.83;0.68;;;;;;;21.10;51.01;101159.97;4992070;28;20370;-65
2021/10/04 02:12:43;;;;;;;1.63;0.75;;;;;;;21.09;51.30;101156.47;4993157;28;20037;-65
2021/10/04 02:15:09;;;;;;;1.75;0.70;;;;;;;21.10;51.32;101162.63;4992610;28;20054;-64
2021/10/04 02:17:35;;;;;;;2.08;0.50;;;;;;;21.09;51.34;101169.72;4992354;28;20073;-64
2021/10/04 02:20:07;;;;;;;1.23;0.60;;;;;;;21.09;51.18;101166.25;4996348;28;20034;-64
2021/10/04 02:22:33;;;;;;;1.25;0.60;;;;;;;21.09;51.15;101166.25;4997189;28;20487;-64
2021/10/04 02:24:59;;;;;;;1.77;0.60;;;;;;;21.08;51.04;101167.22;4996019;28;20117;-64
2021/10/04 02:27:24;;;;;;;1.65;0.60;;;;;;;21.06;50.93;101163.88;4997026;28;20073;-64
2021/10/04 02:29:49;;;;;;;1.67;0.57;;;;;;;21.05;51.04;101156.91;4995715;28;20028;-64
2021/10/04 02:32:15;;;;;;;0.68;0.50;;;;;;;21.04;51.18;101152.56;4996753;28;20116;-65
2021/10/04 02:34:40;;;;;;;2.42;0.60;;;;;;;21.04;51.60;101153.41;4996576;28;20029;-65
2021/10/04 02:37:05;;;;;;;1.60;0.60;;;;;;;21.04;51.18;101153.41;4995664;28;20037;-65
2021/10/04 02:39:31;;;;;;;1.77;0.60;;;;;;;21.04;51.07;101158.69;4996735;28;20445;-65
2021/10/04 02:41:56;;;;;;;1.58;0.60;;;;;;;21.03;50.89;101165.00;4996231;28;20530;-64
2021/10/04 02:44:21;;;;;;;0.73;0.50;;;;;;;21.01;50.94;101157.19;4995760;28;20018;-64
2021/10/04 02:46:46;;;;;;;2.05;0.70;;;;;;;21.02;51.35;101171.25;4996503;28;20039;-64
2021/10/04 02:49:12;;;;;;;1.60;0.63;;;;;;;21.02;51.05;101168.59;4996113;28;20022;-64
2021/10/04 02:51:37;;;;;;;2.70;0.70;;;;;;;21.01;50.98;101156.31;4995461;28;20295;-64
2021/10/04 02:54:03;;;;;;;1.42;0.60;;;;;;;21.00;51.02;101167.91;4996173;28;20081;-64
2021/10/04 02:56:29;;;;;;;2.88;0.65;;;;;;;21.01;50.96;101161.63;4996356;28;20121;-65
2021/10/04 02:58:54;;;;;;;1.40;0.57;;;;;;;21.01;50.94;101164.25;4995191;28;20459;-65
2021/10/04 03:01:20;;;;;;;1.10;0.60;;;;;;;20.99;50.98;101168.88;4996188;28;20038;-64
2021/10/04 03:03:45;;;;;;;2.72;0.77;;;;;;;20.99;50.81;101168.88;4996008;28;20026;-65
2021/10/04 03:06:10;;;;;;;1.77;0.60;;;;;;;20.99;51.17;101171.53;4995344;28;20109;-64
2021/10/04 03:08:35;;;;;;;1.90;0.70;;;;;;;20.98;50.99;101175.13;4996280;28;20755;-65
2021/10/04 03:11:01;;;;;;;1.58;0.60;;;;;;;20.97;50.75;101179.59;4995756;28;20034;-65
2021/10/04 03:13:27;;;;;;;1.30;0.60;;;;;;;20.96;50.88;101193.81;4995224;28;20026;-65
2021/10/04 03:15:53;;;;;;;1.75;0.60;;;;;;;20.98;50.94;101197.19;4995657;28;20081;-65
2021/10/04 03:18:18;;;;;;;2.25;0.60;;;;;;;20.97;50.87;101199.97;4996050;28;20438;-66
2021/10/04 03:20:49;;;;;;;1.42;0.68;;;;;;;20.96;50.93;101191.16;4995413;28;20022;-66
2021/10/04 03:23:14;;;;;;;2.10;0.85;;;;;;;20.94;50.90;101193.13;4996069;28;20034;-65
2021/10/04 03:25:39;;;;;;;1.80;0.63;;;;;;;20.93;50.88;101191.44;4995919;28;20038;-65
2021/10/04 03:28:08;;;;;;;1.15;0.50;;;;;;;20.93;50.96;101204.69;4994724;28;20053;-66
2021/10/04 03:30:34;;;;;;;1.13;0.57;;;;;;;20.93;51.01;101207.34;4995229;28;20033;-64
2021/10/04 03:33:01;;;;;;;1.23;0.60;;;;;;;20.91;50.96;101201.34;4995199;28;20097;-65
2021/10/04 03:35:26;;;;;;;1.10;0.60;;;;;;;20.91;50.75;101208.47;4995136;28;20026;-66
2021/10/04 03:37:52;;;;;;;1.23;0.60;;;;;;;20.92;50.89;101207.47;4995572;28;20029;-66
2021/10/04 03:40:18;;;;;;;1.25;0.52;;;;;;;20.92;50.87;101223.34;4995175;28;20021;-65
2021/10/04 03:42:43;;;;;;;1.50;0.60;;;;;;;20.91;50.83;101227.81;4995626;28;20470;-65
2021/10/04 03:45:09;;;;;;;1.95;0.60;;;;;;;20.92;50.79;101228.66;4995115;28;20035;-64
2021/10/04 03:47:35;;;;;;;0.90;0.60;;;;;;;20.90;50.92;101214.72;4994660;28;20162;-65
2021/10/04 03:50:01;;;;;;;2.00;0.60;;;;;;;20.89;50.83;101215.72;4994927;28;20085;-65
2021/10/04 03:52:26;;;;;;;1.73;0.60;;;;;;;20.89;50.85;101223.66;4997046;28;20022;-65
2021/10/04 03:54:52;;;;;;;1.55;0.60;;;;;;;20.88;51.00;101221.97;4995200;28;20072;-64
2021/10/04 03:57:17;;;;;;;1.80;0.57;;;;;;;20.87;50.63;101226.44;4995338;28;20291;-65
2021/10/04 03:59:51;;;;;;;2.22;0.70;;;;;;;20.88;50.78;101228.09;4995378;28;20319;-66
2021/10/04 04:02:17;;;;;;;2.05;0.60;;;;;;;20.85;50.87;101231.00;4994323;28;20038;-65
2021/10/04 04:04:42;;;;;;;0.57;0.40;;;;;;;20.84;50.66;101230.19;4995576;28;20030;-65
2021/10/04 04:07:07;;;;;;;1.13;0.60;;;;;;;20.82;50.91;101237.44;4996082;28;20218;-66
2021/10/04 04:09:33;;;;;;;1.05;0.50;;;;;;;20.85;50.73;101246.91;4994601;28;20640;-65
2021/10/04 04:11:58;;;;;;;1.42;0.57;;;;;;;20.84;51.33;101251.38;4994836;28;20030;-65
2021/10/04 04:14:24;;;;;;;1.77;0.60;;;;;;;20.84;50.87;101253.19;4995066;28;20030;-65
2021/10/04 04:16:49;;;;;;;1.05;0.50;;;;;;;20.83;50.70;101254.16;4993743;28;20062;-65
2021/10/04 04:19:14;;;;;;;0.98;0.47;;;;;;;20.82;50.85;101249.81;4995009;28;20080;-65
2021/10/04 04:21:42;;;;;;;1.63;0.60;;;;;;;20.81;51.04;101245.50;4994761;28;20030;-65
2021/10/04 04:24:10;;;;;;;1.15;0.60;;;;;;;20.81;51.01;101242.84;4993661;28;20055;-65
2021/10/04 04:26:38;;;;;;;2.05;0.70;;;;;;;20.82;50.78;101241.88;4994729;28;20032;-65
2021/10/04 04:29:04;;;;;;;1.98;0.60;;;;;;;20.81;50.90;101243.69;4994392;28;20037;-65
2021/10/04 04:31:29;;;;;;;0.88;0.57;;;;;;;20.81;50.68;101242.84;4993921;28;20038;-66
2021/10/04 04:33:55;;;;;;;2.38;0.60;;;;;;;20.81;50.83;101258.75;4994146;28;20474;-65
2021/10/04 04:36:20;;;;;;;1.30;0.60;;;;;;;20.81;50.78;101258.75;4994437;28;20026;-65
2021/10/04 04:38:49;;;;;;;2.13;0.70;;;;;;;20.80;50.73;101249.13;4993736;28;20129;-67
2021/10/04 04:41:14;;;;;;;0.93;0.50;;;;;;;20.79;50.92;101263.31;4994079;28;20050;-64
2021/10/04 04:43:39;;;;;;;2.78;0.75;;;;;;;20.80;50.82;101268.50;4992743;28;20076;-65
2021/10/04 04:46:05;;;;;;;1.27;0.60;;;;;;;20.79;50.86;101277.44;4994163;28;20046;-65
2021/10/04 04:48:32;;;;;;;1.80;0.70;;;;;;;20.78;50.90;101272.25;4994285;28;20025;-66
2021/10/04 04:50:58;;;;;;;1.75;0.70;;;;;;;20.78;51.01;101281.03;4992636;28;20046;-64
2021/10/04 04:53:23;;;;;;;1.07;0.50;;;;;;;20.77;50.86;101279.34;4993546;28;20018;-64
2021/10/04 04:55:48;;;;;;;1.60;0.63;;;;;;;20.77;50.81;101275.88;4993350;28;20435;-64
2021/10/04 04:58:16;;;;;;;2.15;0.70;;;;;;;20.77;50.92;101282.00;4992925;28;20521;-65
2021/10/04 05:00:41;;;;;;;1.80;0.60;;;;;;;20.77;50.80;101291.75;4993425;28;20046;-66
2021/10/04 05:03:08;;;;;;;1.97;0.70;;;;;;;20.76;50.16;101287.41;4993413;28;20076;-66
2021/10/04 05:05:33;;;;;;;1.00;0.45;;;;;;;20.75;50.81;101293.72;4992802;28;20279;-66
2021/10/04 05:07:59;;;;;;;1.23;0.60;;;;;;;20.75;50.67;101293.72;4993413;28;20435;-65
2021/10/04 05:10:24;;;;;;;1.63;0.70;;;;;;;20.73;50.74;101274.44;4993336;28;20042;-65
2021/10/04 05:12:50;;;;;;;1.83;0.70;;;;;;;20.74;50.88;101284.06;4992300;28;20034;-65
2021/10/04 05:15:16;;;;;;;1.70;0.50;;;;;;;20.74;50.90;101278.78;4993533;28;20498;-65
2021/10/04 05:17:42;;;;;;;1.20;0.60;;;;;;;20.73;50.81;101295.63;4993137;28;20454;-65
2021/10/04 05:20:12;;;;;;;0.80;0.50;;;;;;;20.73;50.74;101293.84;4992417;28;20105;-64
2021/10/04 05:22:38;;;;;;;2.00;0.73;;;;;;;20.73;50.68;101298.28;4993239;28;20096;-64
2021/10/04 05:25:05;;;;;;;1.77;0.60;;;;;;;20.72;50.84;101308.03;4992500;28;20438;-65
2021/10/04 05:27:31;;;;;;;1.65;0.65;;;;;;;20.75;50.75;101304.31;4992138;28;20386;-64
2021/10/04 05:29:56;;;;;;;1.33;0.50;;;;;;;20.77;50.45;101310.31;4992935;28;20043;-65
2021/10/04 05:32:21;;;;;;;1.48;0.55;;;;;;;20.77;51.28;101320.91;4992984;28;20390;-66
2021/10/04 05:34:46;;;;;;;1.42;0.50;;;;;;;20.76;51.47;101322.72;4992405;28;20046;-65
2021/10/04 05:37:12;;;;;;;1.33;0.50;;;;;;;20.76;51.81;101316.56;4992637;28;20030;-66
2021/10/04 05:39:37;;;;;;;2.13;0.90;;;;;;;20.77;51.86;101312.94;4993070;28;20306;-66
2021/10/04 05:42:02;;;;;;;1.80;0.50;;;;;;;20.78;52.15;101315.47;4991907;28;20762;-66
2021/10/04 05:44:28;;;;;;;1.05;0.50;;;;;;;20.80;51.61;101325.94;4993077;28;20030;-66
2021/10/04 05:46:53;;;;;;;1.55;0.65;;;;;;;20.83;51.65;101321.19;4992022;28;20045;-66
2021/10/04 05:49:18;;;;;;;1.20;0.50;;;;;;;20.83;52.16;101312.44;4992945;28;20553;-65
2021/10/04 05:51:44;;;;;;;0.80;0.40;;;;;;;20.82;51.96;101322.19;4992859;28;20030;-65
2021/10/04 05:54:09;;;;;;;0.82;0.45;;;;;;;20.82;51.35;101322.19;4991628;28;20532;-64
2021/10/04 05:56:34;;;;;;;1.40;0.60;;;;;;;20.82;51.57;101318.69;4992742;28;20026;-64
2021/10/04 05:58:59;;;;;;;0.95;0.50;;;;;;;20.83;51.52;101320.38;4992650;28;20038;-65
2021/10/04 06:01:25;;;;;;;1.33;0.60;;;;;;;20.84;51.61;101328.19;4991921;28;20049;-64
2021/10/04 06:03:50;;;;;;;2.50;0.60;;;;;;;20.85;51.75;101329.03;4992336;28;20280;-64
2021/10/04 06:06:15;;;;;;;1.73;0.60;;;;;;;20.89;51.63;101333.09;4992741;28;20096;-66
2021/10/04 06:08:41;;;;;;;1.67;0.60;;;;;;;20.91;51.25;101331.16;4991935;28;20294;-65
2021/10/04 06:11:09;;;;;;;1.80;0.70;;;;;;;20.94;51.59;101343.31;4992214;28;20461;-64
2021/10/04 06:13:34;;;;;;;2.05;0.63;;;;;;;20.95;51.60;101344.97;4992302;28;20019;-67
2021/10/04 06:16:00;;;;;;;1.13;0.60;;;;;;;20.94;51.97;101353.91;4991443;28;20030;-66
2021/10/04 06:18:25;;;;;;;1.85;0.60;;;;;;;20.93;51.91;101362.81;4992853;28;20288;-66
2021/10/04 06:20:50;;;;;;;1.33;0.70;;;;;;;20.92;52.18;101374.38;4992374;28;20034;-63
2021/10/04 06:23:16;;;;;;;1.35;0.63;;;;;;;20.91;52.00;101380.66;4991831;28;20338;-65
2021/10/04 06:25:41;;;;;;;1.00;0.55;;;;;;;20.92;52.25;101379.66;4992511;28;20033;-66
2021/10/04 06:28:06;;;;;;;2.05;0.70;;;;;;;20.94;52.35;101383.03;4992291;28;20530;-66
2021/10/04 06:30:32;;;;;;;1.88;0.75;;;;;;;20.95;52.15;101390.88;4992041;28;20079;-65
2021/10/04 06:32:58;;;;;;;3.00;0.70;;;;;;;20.98;52.12;101392.41;4992115;28;20038;-66
2021/10/04 06:35:23;;;;;;;2.33;0.67;;;;;;;21.01;51.94;101394.78;4992482;28;20019;-65
2021/10/04 06:37:51;;;;;;;1.00;0.50;;;;;;;21.02;52.00;101394.66;4991518;28;20276;-65
2021/10/04 06:40:17;;;;;;;1.63;0.60;;;;;;;21.03;51.67;101392.88;4992193;28;20097;-64
2021/10/04 06:42:44;;;;;;;1.63;0.55;;;;;;;21.06;51.67;101403.22;4992249;28;20498;-63
2021/10/04 06:45:13;;;;;;;1.92;0.80;;;;;;;21.08;51.90;101400.41;4991365;28;20121;-63
2021/10/04 06:47:39;;;;;;;3.45;0.70;;;;;;;21.07;51.86;101402.22;4992055;28;20487;-63
2021/10/04 06:50:09;;;;;;;1.70;0.60;;;;;;;21.08;51.81;101411.00;4990706;28;20053;-64
2021/10/04 06:52:34;;;;;;;1.85;0.77;;;;;;;21.08;51.93;101408.34;4992258;28;20022;-64
2021/10/04 06:55:03;;;;;;;3.22;0.68;;;;;;;21.07;52.06;101404.03;4991776;28;20081;-64
2021/10/04 06:57:29;;;;;;;2.17;0.70;;;;;;;21.08;52.29;101406.56;4991017;28;20552;-68
2021/10/04 06:59:54;;;;;;;0.73;0.50;;;;;;;21.09;52.34;101408.22;4991910;28;20034;-62
2021/10/04 07:02:20;;;;;;;1.15;0.50;;;;;;;21.09;52.66;101408.22;4992228;28;20061;-63
2021/10/04 07:04:48;;;;;;;2.97;0.60;;;;;;;21.13;52.22;101412.31;4991485;28;20042;-63
2021/10/04 07:07:13;;;;;;;2.20;0.60;;;;;;;21.13;52.22;101403.53;4995758;28;20519;-62
2021/10/04 07:09:39;;;;;;;1.50;0.52;;;;;;;21.12;52.21;101399.19;4995747;28;20173;-62
2021/10/04 07:12:05;;;;;;;1.75;0.60;;;;;;;21.12;51.90;101399.19;4994723;28;20027;-61
2021/10/04 07:14:36;;;;;;;2.53;0.60;;;;;;;21.14;51.97;101405.19;4995501;28;20113;-64
2021/10/04 07:17:02;;;;;;;2.38;0.60;;;;;;;21.16;51.36;101408.56;4995223;28;20034;-62
2021/10/04 07:19:27;;;;;;;3.13;0.70;;;;;;;21.18;51.55;101412.75;4994180;28;20049;-62
2021/10/04 07:21:52;;;;;;;2.13;0.63;;;;;;;21.18;51.60;101417.22;4995157;28;20069;-64
2021/10/04 07:24:21;;;;;;;4.07;0.70;;;;;;;21.19;51.54;101416.25;4995394;28;20133;-65
2021/10/04 07:26:47;;;;;;;2.67;0.60;;;;;;;21.18;51.59;101417.22;4994661;28;20030;-63
2021/10/04 07:29:14;;;;;;;2.95;0.95;;;;;;;21.17;51.79;101419.03;4995273;28;20462;-64
2021/10/04 07:31:39;;;;;;;2.30;0.55;;;;;;;21.19;51.82;101418.91;4995583;28;20034;-63
2021/10/04 07:34:06;;;;;;;4.57;1.75;;;;;;;21.19;51.70;101417.09;4994523;28;20484;-63
2021/10/04 07:36:32;;;;;;;2.72;0.70;;;;;;;21.19;51.65;101418.91;4995393;28;20031;-63
2021/10/04 07:38:57;;;;;;;4.30;0.63;;;;;;;21.17;51.66;101420.81;4994859;28;20481;-63
2021/10/04 07:41:23;;;;;;;1.30;0.52;;;;;;;21.19;51.30;101422.38;4994644;28;20026;-63
2021/10/04 07:43:48;;;;;;;2.15;0.70;;;;;;;21.19;51.39;101426.84;4994957;28;20461;-63
2021/10/04 07:46:13;;;;;;;3.17;0.70;;;;;;;21.20;51.54;101428.50;4995179;28;20027;-63
2021/10/04 07:48:38;;;;;;;1.55;0.70;;;;;;;21.19;51.52;101429.50;4994480;28;20334;-63
2021/10/04 07:51:08;;;;;;;3.15;0.80;;;;;;;21.17;51.92;101428.78;4994548;28;20086;-64
2021/10/04 07:53:35;;;;;;;4.45;0.90;;;;;;;21.14;52.45;101431.69;4994529;28;20080;-65
2021/10/04 07:56:01;;;;;;;3.35;0.90;;;;;;;21.13;52.76;101433.50;4994685;28;20109;-64
2021/10/04 07:58:28;;;;;;;4.10;1.23;;;;;;;21.12;53.12;101437.13;4995053;28;20534;-63
2021/10/04 08:00:53;;;;;;;3.03;0.82;;;;;;;21.12;53.45;101439.75;4993963;28;20027;-64
2021/10/04 08:03:21;;;;;;;4.85;1.02;;;;;;;21.13;53.41;101428.22;4994774;28;20045;-65
2021/10/04 08:05:46;;;;;;;4.15;1.23;;;;;;;21.13;53.55;101430.84;4994648;28;20045;-62
2021/10/04 08:08:12;;;;;;;5.75;1.40;;;;;;;21.12;53.56;101421.22;4993837;28;20446;-62
2021/10/04 08:10:37;;;;;;;4.68;1.20;;;;;;;21.13;53.40;101419.44;4994891;28;20497;-63
2021/10/04 08:13:10;;;;;;;4.88;1.17;;;;;;;21.16;53.46;101427.94;4994391;28;20026;-63
2021/10/04 08:15:36;;;;;;;5.32;1.73;;;;;;;21.18;53.43;101427.81;4993861;28;20117;-63
2021/10/04 08:18:01;;;;;;;5.00;1.40;;;;;;;21.17;53.64;101434.06;4993742;28;20184;-66
2021/10/04 08:20:27;;;;;;;3.63;1.10;;;;;;;21.17;53.61;101426.13;4994705;28;20035;-68
2021/10/04 08:22:52;;;;;;;4.38;1.33;;;;;;;21.15;53.83;101420.13;4993266;28;20459;-66
2021/10/04 08:25:21;;;;;;;5.53;1.15;;;;;;;21.14;53.92;101421.94;4994319;28;20029;-66
2021/10/04 08:27:46;;;;;;;3.63;1.20;;;;;;;21.12;53.88;101420.38;4994483;28;20386;-66
2021/10/04 08:30:12;;;;;;;3.92;1.10;;;;;;;21.14;53.88;101423.72;4993153;28;20023;-66
2021/10/04 08:32:38;;;;;;;3.15;0.93;;;;;;;21.17;53.78;101423.47;4994108;28;20431;-67
2021/10/04 08:35:04;;;;;;;4.13;0.93;;;;;;;21.22;53.66;101433.69;4993981;28;20038;-66
2021/10/04 08:37:32;;;;;;;3.28;1.08;;;;;;;21.22;53.54;101426.59;4993556;28;20113;-65
2021/10/04 08:40:03;;;;;;;4.95;0.98;;;;;;;21.24;53.53;101432.59;4994121;28;20117;-66
2021/10/04 08:42:30;;;;;;;4.45;1.27;;;;;;;21.26;53.58;101414.75;4994442;28;20023;-65
2021/10/04 08:44:56;;;;;;;4.95;1.00;;;;;;;21.28;53.68;101428.69;4993096;28;20122;-63
2021/10/04 08:50:13;;;;;;;3.38;1.10;;;;;;;21.32;53.73;101438.06;4989248;28;20089;-62
2021/10/04 08:52:39;;;;;;;6.57;1.42;;;;;;;21.35;53.44;101435.16;4993673;28;20038;-62
2021/10/04 08:55:05;;;;;;;3.40;0.90;;;;;;;21.33;53.54;101436.25;4993770;28;20026;-62
2021/10/04 08:57:30;;;;;;;4.82;1.25;;;;;;;21.34;53.34;101443.25;4993279;28;20486;-61
2021/10/04 08:59:58;;;;;;;3.58;0.98;;;;;;;21.35;53.13;101440.47;4993657;28;20462;-63
2021/10/04 09:02:27;;;;;;;4.82;1.00;;;;;;;21.34;53.24;101435.28;4994382;28;20022;-63
2021/10/04 09:05:14;;;;;;;2.42;0.90;;;;;;;21.33;53.33;101430.94;4992785;28;20046;-62
2021/10/04 09:07:47;;;;;;;3.65;0.95;;;;;;;21.30;53.30;101444.47;4993490;28;20049;-63
2021/10/04 09:10:16;;;;;;;2.85;1.15;;;;;;;21.28;53.57;101439.31;4993348;28;20022;-62
2021/10/04 09:12:51;;;;;;;3.70;0.80;;;;;;;21.29;53.28;101445.47;4992616;28;20026;-61
2021/10/04 09:15:38;;;;;;;3.00;1.08;;;;;;;21.32;53.25;101446.03;4993751;28;20030;-62
2021/10/04 09:18:27;;;;;;;5.50;1.10;;;;;;;21.32;53.17;101439.91;4992245;28;20663;-63
2021/10/04 09:21:02;;;;;;;4.07;1.00;;;;;;;21.32;53.12;101439.91;4986877;28;20038;-63
2021/10/04 09:23:47;;;;;;;3.40;1.00;;;;;;;21.33;53.21;101437.13;4993668;28;20049;-62
2021/10/04 09:26:25;;;;;;;2.78;0.98;;;;;;;21.32;53.39;101439.91;4993274;28;20033;-62
2021/10/04 09:29:09;;;;;;;2.65;0.90;;;;;;;21.30;53.05;101441.81;4992693;28;20621;-62
2021/10/04 09:31:39;;;;;;;2.65;0.93;;;;;;;21.30;53.25;101440.03;4993744;28;20065;-62
2021/10/04 09:34:13;;;;;;;3.38;0.85;;;;;;;21.32;53.13;101439.91;4992638;28;20057;-62
2021/10/04 09:36:38;;;;;;;;;;;;;;;21.30;53.22;101460.38;4993949;28;20045;-62
2021/10/04 09:39:19;;;;;;;4.03;1.00;;;;;;;21.28;53.15;101444.59;4992541;28;19918;-63
2021/10/04 09:42:04;;;;;;;2.35;0.80;;;;;;;21.30;53.15;101440.03;4993319;28;20126;-62
2021/10/04 09:44:54;;;;;;;5.38;1.23;;;;;;;21.33;52.80;101441.56;4993227;28;20474;-63
2021/10/04 09:47:22;;;;;;;3.33;1.20;;;;;;;21.35;52.82;101439.63;4992315;28;20071;-62
2021/10/04 09:50:09;;;;;;;3.83;0.90;;;;;;;21.34;52.73;101436.13;4992548;28;20505;-62
2021/10/04 09:52:46;;;;;;;3.28;0.80;;;;;;;21.37;52.73;101443.81;4993125;28;20482;-63
2021/10/04 09:55:13;;;;;;;2.75;0.80;;;;;;;21.34;52.85;101448.56;4992048;28;20045;-61
2021/10/04 09:57:39;;;;;;;3.20;0.80;;;;;;;21.33;52.87;101444.22;4992915;28;20052;-62
2021/10/04 10:00:05;;;;;;;2.38;0.82;;;;;;;21.33;52.90;101444.22;4991955;28;20073;-62
2021/10/04 10:02:31;;;;;;;3.85;1.08;;;;;;;21.31;53.04;101441.69;4993028;28;20046;-61
2021/10/04 10:04:57;;;;;;;3.00;1.05;;;;;;;21.30;52.91;101445.34;4993083;28;20112;-62
2021/10/04 10:07:26;;;;;;;2.15;0.80;;;;;;;21.29;53.29;101445.47;4992479;28;20023;-61
2021/10/04 10:09:55;;;;;;;2.67;0.73;;;;;;;21.30;53.12;101447.13;4992589;28;20050;-62
2021/10/04 10:12:20;;;;;;;4.03;0.88;;;;;;;21.30;52.94;101440.03;4992878;28;20124;-62
2021/10/04 10:14:49;;;;;;;2.85;0.85;;;;;;;21.31;52.85;101436.38;4992099;28;20470;-62
2021/10/04 10:17:28;;;;;;;3.95;0.70;;;;;;;21.32;53.01;101427.47;4992795;28;20048;-61
2021/10/04 10:19:56;;;;;;;3.13;0.90;;;;;;;21.33;53.10;101441.56;4992786;28;20027;-62
2021/10/04 10:22:22;;;;;;;4.10;1.00;;;;;;;21.32;53.00;101435.44;4992066;28;20493;-61
2021/10/04 10:24:48;;;;;;;2.38;0.73;;;;;;;21.34;53.21;101433.47;4992697;28;20030;-61
2021/10/04 10:27:14;;;;;;;3.20;0.80;;;;;;;21.35;53.18;101439.63;4992659;28;20033;-61
2021/10/04 10:29:44;;;;;;;2.05;0.88;;;;;;;21.36;53.03;101442.16;4991831;28;20044;-61
2021/10/04 10:32:17;;;;;;;3.47;0.82;;;;;;;21.38;52.95;101442.03;4992189;28;20030;-64
2021/10/04 10:34:44;;;;;;;4.10;0.93;;;;;;;21.39;53.01;101446.34;4992676;28;20049;-63
2021/10/04 10:37:23;;;;;;;2.38;0.85;;;;;;;21.40;52.85;101437.44;4991473;28;20046;-63
2021/10/04 10:39:57;;;;;;;3.75;0.93;;;;;;;21.41;53.08;101441.72;4992310;28;20061;-61
2021/10/04 10:42:28;;;;;;;;;;;;;;;21.42;52.78;101439.94;4995959;28;20110;-64
2021/10/04 10:44:56;;;;;;;5.80;1.50;;;;;;;21.43;52.12;101437.16;4988757;28;20341;-64
2021/10/04 10:47:33;;;;;;;4.45;1.70;;;;;;;21.52;52.13;101441.72;4993458;28;20464;-66
2021/10/04 10:50:23;;;;;;;5.22;2.08;;;;;;;21.59;51.94;101447.31;4992827;28;20528;-59
2021/10/04 10:52:57;;;;;;;5.70;2.10;;;;;;;21.65;51.90;101446.78;4994644;28;20038;-62
2021/10/04 10:55:30;;;;;;;;;;;;;;;21.71;51.70;101458.66;4995318;28;20383;-62
2021/10/04 10:57:55;;;;;;;5.25;2.00;;;;;;;21.74;51.63;101443.31;4993374;28;19914;-63
2021/10/04 11:00:21;;;;;;;4.28;1.88;;;;;;;21.72;52.03;101458.53;4994036;28;20161;-62
2021/10/04 11:03:21;;;;;;;6.23;1.90;;;;;;;21.69;51.81;101452.66;4993994;28;20465;-63
2021/10/04 11:06:03;;;;;;;7.90;1.88;;;;;;;21.66;51.88;101455.56;4996166;28;20334;-62
2021/10/04 11:08:29;;;;;;;5.35;1.48;;;;;;;21.63;52.04;101453.19;4996123;28;20109;-62
2021/10/04 11:10:57;;;;;;;5.33;2.00;;;;;;;21.61;52.00;101453.31;4994924;28;20126;-64
2021/10/04 11:13:34;;;;;;;4.30;1.60;;;;;;;21.59;52.27;101454.41;4995747;28;20347;-62
2021/10/04 11:16:16;;;;;;;5.93;1.40;;;;;;;21.60;51.70;101448.16;4995617;28;20042;-62
2021/10/04 11:18:51;;;;;;;6.80;1.50;;;;;;;21.63;51.63;101454.00;4994800;28;20134;-62
2021/10/04 11:21:28;;;;;;;5.28;1.38;;;;;;;21.64;51.77;101458.34;4995495;28;20109;-62
2021/10/04 11:23:59;;;;;;;4.47;1.15;;;;;;;21.63;52.03;101459.31;4995158;28;20026;-63
2021/10/04 11:26:25;;;;;;;4.70;1.40;;;;;;;21.62;51.90;101446.19;4994824;28;20093;-62
2021/10/04 11:28:54;;;;;;;3.58;1.40;;;;;;;21.61;51.90;101466.59;4995464;28;20019;-62
2021/10/04 11:31:30;;;;;;;6.43;1.27;;;;;;;21.61;52.12;101450.66;4995290;28;20118;-62